createdAt,value
2022-08-10T00:04:08.269Z,2.45
2022-08-10T00:09:11.671Z,2.38
2022-08-10T00:14:14.194Z,2.00
2022-08-10T00:19:18.212Z,2.60
2022-08-10T00:24:20.798Z,3.28
2022-08-10T00:29:23.331Z,2.55
2022-08-10T00:34:26.337Z,2.72
2022-08-10T00:39:29.815Z,2.40
2022-08-10T00:44:44.343Z,2.67
2022-08-10T00:49:47.073Z,2.95
2022-08-10T00:54:49.605Z,2.35
2022-08-10T00:59:58.778Z,2.83
2022-08-10T01:05:09.018Z,2.47
2022-08-10T01:10:32.626Z,2.50
2022-08-10T01:15:54.102Z,2.58
2022-08-10T01:21:14.562Z,2.80
2022-08-10T01:26:57.228Z,2.38
2022-08-10T01:32:08.948Z,2.40
2022-08-10T01:37:15.240Z,2.60
2022-08-10T01:42:20.119Z,2.75
2022-08-10T01:47:48.425Z,2.40
2022-08-10T01:52:54.835Z,2.50
2022-08-10T01:58:00.462Z,2.35
2022-08-10T02:03:05.670Z,3.17
2022-08-10T02:08:13.180Z,2.28
2022-08-10T02:13:18.978Z,2.78
2022-08-10T02:18:22.922Z,2.90
2022-08-10T02:23:29.782Z,2.95
2022-08-10T02:28:34.295Z,2.78
2022-08-10T02:33:38.823Z,2.40
2022-08-10T02:39:03.925Z,2.65
2022-08-10T02:45:19.602Z,2.45
2022-08-10T02:49:42.959Z,2.72
2022-08-10T02:54:53.574Z,2.67
2022-08-10T03:00:00.287Z,2.58
2022-08-10T03:05:10.642Z,2.60
2022-08-10T03:10:20.275Z,3.17
2022-08-10T03:15:24.940Z,2.72
2022-08-10T03:20:36.774Z,3.03
2022-08-10T03:25:53.536Z,2.30
2022-08-10T03:30:59.222Z,2.60
2022-08-10T03:36:41.738Z,2.53
2022-08-10T03:41:36.807Z,2.42
2022-08-10T03:46:43.007Z,2.75
2022-08-10T03:51:49.198Z,3.15
2022-08-10T03:56:53.272Z,3.17
2022-08-10T04:02:52.643Z,3.03
2022-08-10T04:07:18.874Z,2.97
2022-08-10T04:12:21.325Z,3.10
2022-08-10T04:18:02.989Z,2.53
2022-08-10T04:22:52.166Z,2.60
2022-08-10T04:27:55.422Z,2.80
2022-08-10T04:33:01.228Z,2.60
2022-08-10T04:38:04.662Z,2.72
2022-08-10T04:43:12.700Z,2.80
2022-08-10T04:48:40.181Z,2.95
2022-08-10T04:54:04.631Z,4.68
2022-08-10T04:59:01.819Z,8.48
2022-08-10T05:04:36.092Z,6.53
2022-08-10T05:09:26.983Z,5.60
2022-08-10T05:14:29.415Z,4.95
2022-08-10T05:20:02.297Z,4.38
2022-08-10T05:24:54.272Z,4.57
2022-08-10T05:30:01.174Z,4.75
2022-08-10T05:35:05.859Z,4.38
2022-08-10T05:40:08.884Z,3.67
2022-08-10T05:45:20.548Z,4.25
2022-08-10T05:50:27.584Z,3.97
2022-08-10T05:55:31.541Z,4.10
2022-08-10T06:00:40.774Z,4.00
2022-08-10T06:05:48.013Z,3.67
2022-08-10T06:12:27.762Z,3.60
2022-08-10T06:16:17.836Z,3.60
2022-08-10T06:21:21.058Z,3.50
2022-08-10T06:26:23.585Z,3.88
2022-08-10T06:31:27.312Z,3.97
2022-08-10T06:36:33.976Z,3.95
2022-08-10T06:42:15.105Z,3.30
2022-08-10T06:47:06.410Z,4.03
2022-08-10T06:52:16.341Z,3.58
2022-08-10T06:57:24.806Z,3.95
2022-08-10T07:02:36.947Z,3.80
2022-08-10T07:07:43.007Z,4.35
2022-08-10T07:12:51.196Z,3.83
2022-08-10T07:17:54.478Z,4.50
2022-08-10T07:23:01.676Z,4.32
2022-08-10T07:28:21.889Z,3.63
2022-08-10T07:33:25.791Z,3.70
2022-08-10T07:38:31.736Z,3.60
2022-08-10T07:43:38.605Z,3.25
2022-08-10T07:49:19.515Z,3.90
2022-08-10T07:54:25.262Z,3.67
2022-08-10T07:59:42.781Z,3.38
2022-08-10T08:04:46.943Z,3.30
2022-08-10T08:09:57.779Z,3.08
2022-08-10T08:15:02.570Z,2.97
2022-08-10T08:20:26.422Z,2.47
2022-08-10T08:25:33.433Z,4.05
2022-08-10T08:30:39.133Z,2.72
2022-08-10T08:35:42.914Z,3.45
2022-08-10T08:41:01.001Z,3.42
2022-08-10T08:46:35.156Z,3.15
2022-08-10T08:52:12.441Z,3.08
2022-08-10T08:57:49.409Z,3.38
2022-08-10T09:03:23.972Z,3.35
2022-08-10T09:09:00.873Z,4.10
2022-08-10T09:14:31.223Z,3.60
2022-08-10T09:20:10.001Z,3.70
2022-08-10T09:25:34.368Z,2.90
2022-08-10T09:31:10.990Z,3.00
2022-08-10T09:36:32.308Z,3.42
2022-08-10T09:41:49.819Z,3.03
2022-08-10T09:47:05.455Z,3.10
2022-08-10T09:52:33.301Z,2.97
2022-08-10T09:58:12.326Z,2.45
2022-08-10T10:03:27.905Z,3.45
2022-08-10T10:08:43.982Z,3.78
2022-08-10T10:14:07.236Z,2.55
2022-08-10T10:19:40.949Z,2.85
2022-08-10T10:24:52.482Z,2.95
2022-08-10T10:30:02.351Z,2.80
2022-08-10T10:35:25.880Z,2.72
2022-08-10T10:40:44.110Z,2.55
2022-08-10T10:45:58.743Z,2.90
2022-08-10T10:51:10.898Z,3.30
2022-08-10T10:56:44.482Z,2.70
2022-08-10T11:02:26.034Z,3.03
2022-08-10T11:07:53.270Z,2.88
2022-08-10T11:14:25.180Z,2.70
2022-08-10T11:19:12.846Z,3.13
2022-08-10T11:24:48.748Z,3.38
2022-08-10T11:29:49.833Z,2.67
2022-08-10T11:35:11.750Z,2.45
2022-08-10T11:40:41.099Z,2.05
2022-08-10T11:46:07.993Z,2.10
2022-08-10T11:51:21.247Z,2.00
2022-08-10T11:56:38.835Z,2.42
2022-08-10T12:01:42.599Z,2.45
2022-08-10T12:06:56.219Z,2.50
2022-08-10T12:12:00.342Z,2.05
2022-08-10T12:17:11.127Z,2.53
2022-08-10T12:22:25.328Z,2.25
2022-08-10T12:27:48.566Z,2.03
2022-08-10T12:32:53.720Z,2.20
2022-08-10T12:38:09.670Z,1.92
2022-08-10T12:44:07.100Z,2.20
2022-08-10T12:49:09.239Z,1.55
2022-08-10T12:54:32.526Z,1.90
2022-08-10T12:59:43.143Z,1.60
2022-08-10T13:04:49.341Z,2.00
2022-08-10T13:09:56.515Z,1.80
2022-08-10T13:15:45.867Z,1.85
2022-08-10T13:20:41.294Z,1.95
2022-08-10T13:25:48.484Z,2.08
2022-08-10T13:30:53.633Z,1.52
2022-08-10T13:35:58.929Z,1.80
2022-08-10T13:41:06.718Z,1.70
2022-08-10T13:46:22.726Z,2.00
2022-08-10T13:51:53.746Z,2.08
2022-08-10T13:57:14.695Z,1.65
2022-08-10T14:02:31.428Z,1.80
2022-08-10T14:07:38.447Z,2.10
2022-08-10T14:12:57.606Z,1.85
2022-08-10T14:18:01.913Z,1.70
2022-08-10T14:23:13.390Z,1.65
2022-08-10T14:28:18.605Z,2.47
2022-08-10T14:33:24.785Z,2.50
2022-08-10T14:38:30.969Z,1.80
2022-08-10T14:43:41.708Z,1.67
2022-08-10T14:48:47.402Z,2.00
2022-08-10T14:53:54.401Z,2.55
2022-08-10T14:59:06.905Z,2.03
2022-08-10T15:04:17.085Z,1.90
2022-08-10T15:09:23.327Z,2.00
2022-08-10T15:14:43.203Z,2.22
2022-08-10T15:20:03.002Z,1.80
2022-08-10T15:25:24.298Z,1.90
2022-08-10T15:30:32.364Z,1.58
2022-08-10T15:35:54.759Z,2.33
2022-08-10T15:40:59.448Z,1.70
2022-08-10T15:46:15.946Z,1.83
2022-08-10T15:51:53.645Z,1.88
2022-08-10T15:57:12.991Z,2.13
2022-08-10T16:02:25.117Z,1.58
2022-08-10T16:07:51.048Z,1.80
2022-08-10T16:14:00.041Z,1.80
2022-08-10T16:18:29.947Z,1.40
2022-08-10T16:23:38.921Z,1.52
2022-08-10T16:28:45.410Z,1.70
2022-08-10T16:33:55.046Z,1.75
2022-08-10T16:38:58.787Z,1.80
2022-08-10T16:44:02.335Z,1.90
2022-08-10T16:49:05.537Z,1.65
2022-08-10T16:54:10.643Z,2.08
2022-08-10T16:59:17.567Z,2.15
2022-08-10T17:04:25.070Z,1.80
2022-08-10T17:09:30.699Z,2.60
2022-08-10T17:14:33.219Z,2.20
2022-08-10T17:19:39.802Z,2.80
2022-08-10T17:24:50.436Z,2.40
2022-08-10T17:30:04.266Z,2.28
2022-08-10T17:35:22.994Z,2.60
2022-08-10T17:40:28.691Z,2.17
2022-08-10T17:45:47.913Z,2.80
2022-08-10T17:50:53.501Z,2.50
2022-08-10T17:55:57.868Z,2.85
2022-08-10T18:01:38.704Z,2.53
2022-08-10T18:06:27.784Z,2.15
2022-08-10T18:11:34.854Z,2.03
2022-08-10T18:16:42.007Z,2.30
2022-08-10T18:21:48.159Z,1.90
2022-08-10T18:26:52.696Z,2.42
2022-08-10T18:32:00.851Z,2.13
2022-08-10T18:37:07.767Z,2.28
2022-08-10T18:42:26.593Z,1.75
2022-08-10T18:47:59.357Z,1.98
2022-08-10T18:53:13.827Z,2.17
2022-08-10T18:58:31.210Z,2.22
2022-08-10T19:04:01.674Z,1.80
2022-08-10T19:09:47.240Z,1.65
2022-08-10T19:15:20.945Z,2.05
2022-08-10T19:21:04.088Z,1.80
2022-08-10T19:26:46.211Z,1.95
2022-08-10T19:32:08.928Z,2.38
2022-08-10T19:38:00.122Z,2.03
2022-08-10T19:43:13.402Z,1.85
2022-08-10T19:48:33.017Z,2.30
2022-08-10T19:53:51.097Z,2.00
2022-08-10T20:00:17.558Z,2.00
2022-08-10T20:05:17.371Z,1.85
2022-08-10T20:10:35.670Z,1.75
2022-08-10T20:16:28.745Z,1.90
2022-08-10T20:21:47.283Z,2.25
2022-08-10T20:27:13.288Z,3.53
2022-08-10T20:32:32.325Z,2.05
2022-08-10T20:38:08.244Z,1.90
2022-08-10T20:43:41.429Z,1.85
2022-08-10T20:49:22.093Z,2.35
2022-08-10T20:54:32.542Z,1.88
2022-08-10T21:00:04.102Z,1.70
2022-08-10T21:05:23.643Z,1.85
2022-08-10T21:10:55.714Z,2.17
2022-08-10T21:16:16.013Z,2.05
2022-08-10T21:21:41.885Z,2.30
2022-08-10T21:26:47.545Z,2.67
2022-08-10T21:31:55.780Z,2.10
2022-08-10T21:37:17.777Z,2.25
2022-08-10T21:42:54.189Z,2.83
2022-08-10T21:48:40.328Z,1.88
2022-08-10T21:54:18.220Z,2.25
2022-08-10T21:59:45.065Z,2.22
2022-08-10T22:05:09.165Z,2.17
2022-08-10T22:10:32.749Z,2.67
2022-08-10T22:16:10.554Z,2.15
2022-08-10T22:21:46.273Z,2.00
2022-08-10T22:27:46.993Z,2.03
2022-08-10T22:33:45.551Z,1.83
2022-08-10T22:40:10.828Z,2.05
2022-08-10T22:45:25.599Z,2.38
2022-08-10T22:50:29.861Z,2.28
2022-08-10T22:55:58.475Z,2.10
2022-08-10T23:01:42.314Z,1.90
2022-08-10T23:07:17.314Z,2.22
2022-08-10T23:13:12.187Z,2.10
2022-08-10T23:18:45.829Z,1.80
2022-08-10T23:23:52.384Z,1.83
2022-08-10T23:28:58.312Z,2.65
2022-08-10T23:34:03.203Z,1.90
2022-08-10T23:39:25.603Z,2.10
2022-08-10T23:44:36.027Z,1.83
2022-08-10T23:49:39.226Z,1.90
2022-08-10T23:54:52.745Z,1.95
